createdAt,value
2022-09-21T00:02:20.749Z,6.40
2022-09-21T00:05:22.588Z,6.41
2022-09-21T00:08:25.190Z,6.38
2022-09-21T00:11:30.354Z,6.36
2022-09-21T00:14:32.115Z,6.32
2022-09-21T00:17:37.591Z,6.30
2022-09-21T00:20:43.526Z,6.29
2022-09-21T00:23:45.854Z,6.26
2022-09-21T00:26:47.509Z,6.25
2022-09-21T00:29:59.019Z,6.25
2022-09-21T00:33:00.703Z,6.23
2022-09-21T00:36:07.769Z,6.20
2022-09-21T00:39:09.919Z,6.15
2022-09-21T00:42:26.763Z,6.16
2022-09-21T00:45:28.493Z,6.14
2022-09-21T00:48:30.993Z,6.12
2022-09-21T00:51:32.673Z,6.11
2022-09-21T00:54:44.875Z,6.08
2022-09-21T00:57:49.666Z,6.08
2022-09-21T01:00:52.380Z,6.06
2022-09-21T01:03:56.826Z,6.06
2022-09-21T01:07:04.082Z,6.04
2022-09-21T01:10:10.282Z,6.05
2022-09-21T01:13:36.332Z,6.03
2022-09-21T01:16:38.780Z,5.98
2022-09-21T01:20:11.244Z,5.98
2022-09-21T01:23:28.108Z,5.96
2022-09-21T01:26:56.832Z,5.97
2022-09-21T01:30:07.879Z,5.95
2022-09-21T01:33:13.881Z,5.94
2022-09-21T01:36:20.855Z,5.92
2022-09-21T01:39:23.382Z,5.90
2022-09-21T01:42:28.440Z,5.86
2022-09-21T01:45:38.360Z,5.83
2022-09-21T01:48:44.749Z,5.79
2022-09-21T01:51:52.014Z,5.78
2022-09-21T01:55:00.033Z,5.80
2022-09-21T01:58:12.146Z,5.78
2022-09-21T02:01:19.720Z,5.77
2022-09-21T02:04:21.605Z,5.71
2022-09-21T02:07:25.089Z,5.69
2022-09-21T02:10:33.422Z,5.69
2022-09-21T02:13:39.340Z,5.68
2022-09-21T02:17:00.754Z,5.68
2022-09-21T02:20:15.407Z,5.67
2022-09-21T02:23:45.932Z,5.66
2022-09-21T02:27:05.267Z,5.65
2022-09-21T02:30:20.360Z,5.63
2022-09-21T02:33:41.611Z,5.61
2022-09-21T02:37:02.187Z,5.60
2022-09-21T02:40:13.532Z,5.59
2022-09-21T02:43:27.766Z,5.61
2022-09-21T02:46:36.298Z,5.59
2022-09-21T02:49:42.557Z,5.55
2022-09-21T02:52:44.628Z,5.51
2022-09-21T02:55:55.709Z,5.50
2022-09-21T02:59:03.223Z,5.50
2022-09-21T03:02:06.978Z,5.49
2022-09-21T03:05:11.164Z,5.45
2022-09-21T03:08:12.758Z,5.46
2022-09-21T03:11:18.805Z,5.48
2022-09-21T03:14:20.466Z,5.43
2022-09-21T03:17:22.409Z,5.40
2022-09-21T03:20:24.011Z,5.35
2022-09-21T03:23:25.801Z,5.35
2022-09-21T03:26:27.684Z,5.35
2022-09-21T03:29:29.288Z,5.35
2022-09-21T03:32:30.886Z,5.33
2022-09-21T03:35:35.945Z,5.31
2022-09-21T03:38:38.204Z,5.29
2022-09-21T03:41:39.938Z,5.28
2022-09-21T03:44:41.588Z,5.29
2022-09-21T03:47:43.395Z,5.25
2022-09-21T03:50:45.621Z,5.24
2022-09-21T03:53:47.314Z,5.22
2022-09-21T03:56:48.983Z,5.20
2022-09-21T03:59:50.636Z,5.17
2022-09-21T04:02:55.670Z,5.12
2022-09-21T04:05:57.847Z,5.07
2022-09-21T04:09:02.544Z,5.04
2022-09-21T04:12:07.503Z,5.03
2022-09-21T04:15:14.478Z,5.03
2022-09-21T04:18:16.132Z,5.00
2022-09-21T04:21:18.772Z,4.99
2022-09-21T04:24:23.288Z,4.96
2022-09-21T04:27:25.071Z,4.94
2022-09-21T04:30:26.855Z,4.93
2022-09-21T04:33:28.523Z,4.92
2022-09-21T04:36:36.419Z,4.92
2022-09-21T04:39:40.957Z,4.94
2022-09-21T04:42:42.733Z,4.90
2022-09-21T04:45:53.024Z,4.87
2022-09-21T04:48:55.045Z,4.87
2022-09-21T04:51:59.377Z,4.86
2022-09-21T04:55:01.004Z,4.84
2022-09-21T04:58:02.706Z,4.81
2022-09-21T05:01:06.203Z,4.79
2022-09-21T05:04:07.999Z,4.78
2022-09-21T05:07:09.809Z,4.75
2022-09-21T05:10:11.976Z,4.75
2022-09-21T05:13:19.741Z,4.75
2022-09-21T05:16:25.157Z,4.75
2022-09-21T05:19:34.831Z,4.74
2022-09-21T05:22:36.662Z,4.72
2022-09-21T05:25:45.025Z,4.73
2022-09-21T05:28:47.176Z,4.77
2022-09-21T05:31:54.634Z,4.78
2022-09-21T05:35:21.073Z,4.83
2022-09-21T05:38:23.062Z,4.85
2022-09-21T05:41:25.049Z,4.91
2022-09-21T05:44:27.046Z,4.94
2022-09-21T05:47:51.680Z,5.03
2022-09-21T05:51:15.560Z,5.04
2022-09-21T05:54:31.386Z,5.12
2022-09-21T05:57:48.170Z,5.18
2022-09-21T06:01:15.350Z,5.23
2022-09-21T06:04:17.363Z,5.31
2022-09-21T06:07:19.148Z,5.41
2022-09-21T06:10:20.853Z,5.51
2022-09-21T06:13:22.551Z,5.59
2022-09-21T06:16:24.243Z,5.69
2022-09-21T06:19:26.010Z,5.78
2022-09-21T06:22:27.645Z,5.88
2022-09-21T06:25:29.299Z,5.97
2022-09-21T06:28:30.978Z,6.07
2022-09-21T06:31:33.077Z,6.19
2022-09-21T06:34:34.767Z,6.31
2022-09-21T06:37:38.418Z,6.39
2022-09-21T06:40:40.057Z,6.51
2022-09-21T06:43:41.764Z,6.60
2022-09-21T06:46:43.476Z,6.71
2022-09-21T06:49:45.165Z,6.83
2022-09-21T06:52:47.338Z,6.93
2022-09-21T06:55:48.980Z,7.04
2022-09-21T06:58:51.601Z,7.15
2022-09-21T07:01:55.760Z,7.27
2022-09-21T07:04:58.711Z,7.43
2022-09-21T07:08:00.603Z,7.55
2022-09-21T07:11:02.819Z,7.70
2022-09-21T07:14:05.412Z,7.81
2022-09-21T07:17:08.538Z,7.91
2022-09-21T07:20:10.211Z,8.03
2022-09-21T07:23:19.954Z,8.18
2022-09-21T07:26:22.681Z,8.27
2022-09-21T07:29:24.359Z,8.38
2022-09-21T07:32:26.429Z,8.49
2022-09-21T07:35:28.086Z,8.64
2022-09-21T07:38:29.840Z,8.74
2022-09-21T07:41:31.768Z,8.84
2022-09-21T07:44:34.269Z,8.99
2022-09-21T07:47:35.948Z,9.09
2022-09-21T07:50:38.596Z,9.17
2022-09-21T07:53:45.287Z,9.27
2022-09-21T07:57:06.998Z,9.40
2022-09-21T08:00:20.708Z,9.48
2022-09-21T08:03:35.042Z,9.55
2022-09-21T08:06:42.034Z,9.64
2022-09-21T08:32:51.143Z,10.18
2022-09-21T08:35:55.693Z,10.26
2022-09-21T08:38:57.294Z,10.29
2022-09-21T08:42:09.617Z,10.33
2022-09-21T08:45:16.923Z,10.37
2022-09-21T08:48:28.268Z,10.44
2022-09-21T08:51:36.567Z,10.44
2022-09-21T08:54:48.987Z,10.48
2022-09-21T08:57:50.654Z,10.50
2022-09-21T09:01:20.172Z,10.56
2022-09-21T09:04:50.557Z,10.63
2022-09-21T09:08:24.257Z,10.72
2022-09-21T09:11:28.840Z,10.78
2022-09-21T09:14:49.031Z,10.78
2022-09-21T09:17:56.524Z,10.86
2022-09-21T09:21:05.072Z,10.95
2022-09-21T09:24:41.768Z,11.08
2022-09-21T09:27:46.618Z,11.18
2022-09-21T09:30:57.312Z,11.29
2022-09-21T09:34:12.834Z,11.39
2022-09-21T09:37:16.860Z,11.49
2022-09-21T09:40:30.868Z,11.53
2022-09-21T09:44:10.303Z,11.61
2022-09-21T09:47:36.637Z,11.72
2022-09-21T09:50:40.772Z,11.85
2022-09-21T09:53:42.511Z,11.95
2022-09-21T09:56:44.195Z,12.11
2022-09-21T09:59:54.958Z,12.21
2022-09-21T10:02:58.732Z,12.39
2022-09-21T10:06:00.332Z,12.55
2022-09-21T10:09:19.583Z,12.53
2022-09-21T10:12:27.398Z,12.60
2022-09-21T10:15:29.777Z,12.67
2022-09-21T10:18:58.982Z,12.66
2022-09-21T10:22:03.988Z,12.74
2022-09-21T10:25:08.375Z,12.80
2022-09-21T10:28:13.497Z,12.70
2022-09-21T10:31:20.931Z,12.72
2022-09-21T10:34:23.951Z,12.70
2022-09-21T10:37:28.917Z,12.76
2022-09-21T10:40:37.499Z,12.88
2022-09-21T10:43:43.893Z,12.99
2022-09-21T10:46:47.652Z,13.02
2022-09-21T10:49:54.839Z,13.05
2022-09-21T10:53:30.184Z,13.08
2022-09-21T10:56:31.841Z,13.07
2022-09-21T10:59:37.057Z,13.09
2022-09-21T11:02:39.163Z,13.13
2022-09-21T11:05:49.337Z,13.22
2022-09-21T11:09:02.762Z,13.22
2022-09-21T11:12:30.141Z,13.30
2022-09-21T11:15:43.787Z,13.35
2022-09-21T11:19:01.275Z,13.33
2022-09-21T11:22:08.779Z,13.40
2022-09-21T11:25:23.429Z,13.46
2022-09-21T11:28:33.584Z,13.38
2022-09-21T11:31:41.313Z,13.42
2022-09-21T11:34:48.668Z,13.46
2022-09-21T11:38:13.514Z,13.38
2022-09-21T11:41:35.766Z,13.37
2022-09-21T11:44:53.174Z,13.31
2022-09-21T11:48:40.099Z,13.15
2022-09-21T11:52:45.724Z,13.04
2022-09-21T12:00:44.974Z,12.91
2022-09-21T12:04:46.801Z,13.02
2022-09-21T12:08:33.673Z,13.14
2022-09-21T12:12:44.277Z,13.26
2022-09-21T12:16:07.567Z,13.32
2022-09-21T12:19:24.523Z,13.32
2022-09-21T12:22:34.738Z,13.34
2022-09-21T12:25:42.883Z,13.36
2022-09-21T12:29:00.998Z,13.35
2022-09-21T12:32:28.876Z,13.30
2022-09-21T12:35:56.927Z,13.24
2022-09-21T12:39:18.307Z,13.13
2022-09-21T12:42:43.871Z,13.02
2022-09-21T12:45:56.884Z,12.89
2022-09-21T12:49:02.124Z,12.80
2022-09-21T12:52:06.823Z,12.72
2022-09-21T12:55:21.831Z,12.66
2022-09-21T12:58:51.246Z,12.64
2022-09-21T13:02:05.699Z,12.60
2022-09-21T13:05:26.908Z,12.58
2022-09-21T13:08:37.397Z,12.60
2022-09-21T13:11:57.532Z,12.56
2022-09-21T13:15:05.384Z,12.54
2022-09-21T13:18:18.332Z,12.52
2022-09-21T13:21:26.332Z,12.51
2022-09-21T13:24:30.677Z,12.51
2022-09-21T13:27:57.878Z,12.50
2022-09-21T13:31:09.908Z,12.49
2022-09-21T13:34:37.125Z,12.49
2022-09-21T13:37:39.749Z,12.46
2022-09-21T13:40:50.337Z,12.44
2022-09-21T13:44:01.062Z,12.42
2022-09-21T13:47:08.380Z,12.41
2022-09-21T13:50:31.459Z,12.41
2022-09-21T13:53:39.106Z,12.41
2022-09-21T13:56:42.987Z,12.44
2022-09-21T13:59:47.372Z,12.47
2022-09-21T14:02:49.139Z,12.48
2022-09-21T14:06:16.696Z,12.52
2022-09-21T14:09:39.048Z,12.53
2022-09-21T14:12:45.494Z,12.57
2022-09-21T14:15:47.242Z,12.62
2022-09-21T14:18:48.957Z,12.69
2022-09-21T14:22:09.479Z,12.79
2022-09-21T14:25:52.318Z,12.88
2022-09-21T14:28:54.434Z,12.95
2022-09-21T14:32:01.314Z,13.02
2022-09-21T14:35:10.951Z,13.09
2022-09-21T14:38:59.594Z,13.16
2022-09-21T14:42:12.423Z,13.23
2022-09-21T14:45:18.486Z,13.27
2022-09-21T14:48:51.836Z,13.30
2022-09-21T14:52:20.158Z,13.31
2022-09-21T14:55:29.360Z,13.30
2022-09-21T14:58:45.185Z,13.34
2022-09-21T15:02:14.445Z,13.34
2022-09-21T15:05:27.741Z,13.30
2022-09-21T15:09:14.642Z,13.30
2022-09-21T15:12:54.323Z,13.36
2022-09-21T15:16:17.883Z,13.46
2022-09-21T15:19:28.112Z,13.53
2022-09-21T15:22:31.853Z,13.56
2022-09-21T15:25:33.967Z,13.60
2022-09-21T15:29:05.130Z,13.65
2022-09-21T15:32:01.939Z,13.68
2022-09-21T15:35:27.731Z,13.71
2022-09-21T15:38:34.399Z,13.65
2022-09-21T15:41:44.880Z,13.63
2022-09-21T15:44:49.199Z,13.59
2022-09-21T15:47:51.922Z,13.52
2022-09-21T15:51:10.742Z,13.49
2022-09-21T15:54:25.118Z,13.44
2022-09-21T15:57:41.322Z,13.38
2022-09-21T16:00:54.932Z,13.34
2022-09-21T16:04:06.381Z,13.30
2022-09-21T16:07:24.646Z,13.24
2022-09-21T16:10:38.323Z,13.20
2022-09-21T16:13:59.436Z,13.14
2022-09-21T16:17:13.011Z,13.09
2022-09-21T16:20:23.487Z,13.00
2022-09-21T16:23:30.277Z,12.94
2022-09-21T16:26:36.370Z,12.85
2022-09-21T16:29:40.276Z,12.75
2022-09-21T16:32:42.240Z,12.64
2022-09-21T16:35:44.263Z,12.54
2022-09-21T16:38:56.059Z,12.47
2022-09-21T16:42:03.051Z,12.36
2022-09-21T16:45:11.518Z,12.26
2022-09-21T16:48:13.284Z,12.14
2022-09-21T16:51:22.337Z,12.05
2022-09-21T16:54:26.062Z,11.94
2022-09-21T16:57:32.713Z,11.85
2022-09-21T17:00:40.711Z,11.77
2022-09-21T17:03:42.845Z,11.66
2022-09-21T17:06:44.865Z,11.54
2022-09-21T17:09:47.853Z,11.44
2022-09-21T17:12:50.980Z,11.36
2022-09-21T17:15:53.364Z,11.27
2022-09-21T17:18:54.981Z,11.20
2022-09-21T17:21:56.813Z,11.10
2022-09-21T17:24:58.511Z,10.98
2022-09-21T17:28:01.902Z,10.89
2022-09-21T17:31:03.911Z,10.77
2022-09-21T17:34:10.504Z,10.68
2022-09-21T17:37:12.587Z,10.58
2022-09-21T17:40:14.865Z,10.50
2022-09-21T17:43:40.063Z,10.44
2022-09-21T17:46:53.464Z,10.34
2022-09-21T17:50:19.698Z,10.23
2022-09-21T17:53:41.004Z,10.10
2022-09-21T17:56:53.943Z,10.01
2022-09-21T19:37:25.700Z,8.05
2022-09-21T19:52:14.472Z,7.89
2022-09-21T19:59:48.570Z,7.79
2022-09-21T20:03:31.595Z,7.74
2022-09-21T20:06:44.117Z,7.71
2022-09-21T20:10:16.004Z,7.69
2022-09-21T20:13:22.861Z,7.65
2022-09-21T20:16:45.985Z,7.59
2022-09-21T20:20:14.454Z,7.59
2022-09-21T20:23:30.504Z,7.56
2022-09-21T20:26:32.558Z,7.47
2022-09-21T20:29:50.412Z,7.43
2022-09-21T20:33:05.364Z,7.42
2022-09-21T20:36:13.697Z,7.37
2022-09-21T20:39:24.356Z,7.37
2022-09-21T20:42:45.144Z,7.35
2022-09-21T20:45:50.982Z,7.34
2022-09-21T20:49:08.961Z,7.29
2022-09-21T20:52:16.684Z,7.28
2022-09-21T20:56:02.781Z,7.28
2022-09-21T20:59:12.262Z,7.27
2022-09-21T21:02:44.922Z,7.25
2022-09-21T21:06:11.457Z,7.22
2022-09-21T21:09:38.077Z,7.18
2022-09-21T21:12:43.054Z,7.13
2022-09-21T21:16:12.069Z,7.14
2022-09-21T21:19:26.776Z,7.10
2022-09-21T21:23:31.786Z,7.08
2022-09-21T21:26:57.353Z,7.05
2022-09-21T21:29:59.768Z,7.02
2022-09-21T21:33:01.858Z,6.97
2022-09-21T21:36:15.297Z,6.96
2022-09-21T21:39:19.401Z,6.92
2022-09-21T21:42:50.070Z,6.92
2022-09-21T21:45:53.163Z,6.88
2022-09-21T21:49:02.880Z,6.89
2022-09-21T21:52:25.201Z,6.87
2022-09-21T21:55:27.020Z,6.87
2022-09-21T21:58:28.886Z,6.83
2022-09-21T22:01:31.160Z,6.81
2022-09-21T22:04:32.986Z,6.80
2022-09-21T22:07:34.765Z,6.77
2022-09-21T22:10:36.549Z,6.75
2022-09-21T22:13:39.747Z,6.73
2022-09-21T22:16:41.651Z,6.73
2022-09-21T22:19:46.967Z,6.72
2022-09-21T22:23:16.703Z,6.74
2022-09-21T22:26:31.972Z,6.70
2022-09-21T22:30:01.098Z,6.72
2022-09-21T22:33:05.330Z,6.68
2022-09-21T22:37:03.314Z,6.70
2022-09-21T22:40:09.580Z,6.67
2022-09-21T22:43:26.070Z,6.68
2022-09-21T22:46:29.362Z,6.65
2022-09-21T22:50:28.770Z,6.64
2022-09-21T22:59:07.364Z,6.59
2022-09-21T23:19:19.561Z,6.35
